Time;durP1;ratioP1;P1;durP2;ratioP2;P2;SDS_P1;SDS_P2;PMS_P1;PMS_P2;Temp;Humidity;BMP_temperature;BMP_pressure;BME280_temperature;BME280_humidity;BME280_pressure;Samples;Min_cycle;Max_cycle;Signal;HPM_P1;HPM_P2
2022/06/01 00:00:25;;;;;;;;;2.75;2.75;;;;;;;;5058918;28;47881;-81
2022/06/01 00:02:50;;;;;;;;;3.00;3.00;;;;;;;;5067424;28;46872;-80
2022/06/01 00:05:16;;;;;;;;;5.00;4.00;;;;;;;;5078218;28;46933;-80
2022/06/01 00:07:41;;;;;;;;;3.50;3.00;;;;;;;;5078630;28;46872;-80
2022/06/01 00:10:06;;;;;;;;;5.00;3.00;;;;;;;;5056586;28;47257;-80
2022/06/01 00:12:34;;;;;;;;;3.25;3.00;;;;;;;;5056380;28;47955;-80
2022/06/01 00:15:00;;;;;;;;;2.25;2.25;;;;;;;;5058114;28;46895;-80
2022/06/01 00:17:25;;;;;;;;;3.00;3.00;;;;;;;;5057499;28;46826;-80
2022/06/01 00:19:51;;;;;;;;;4.25;3.00;;;;;;;;5057696;28;47849;-80
2022/06/01 00:22:17;;;;;;;;;3.50;3.50;;;;;;;;5057748;28;47082;-80
2022/06/01 00:24:43;;;;;;;;;4.50;3.50;;;;;;;;5057908;28;47018;-80
2022/06/01 00:27:09;;;;;;;;;3.50;3.50;;;;;;;;5056803;28;47299;-80
2022/06/01 00:29:34;;;;;;;;;3.50;3.25;;;;;;;;5057648;28;47009;-80
2022/06/01 00:32:00;;;;;;;;;4.50;3.00;;;;;;;;5055426;28;46980;-80
2022/06/01 00:34:25;;;;;;;;;6.00;3.75;;;;;;;;5046477;28;47117;-80
2022/06/01 00:36:51;;;;;;;;;7.75;5.00;;;;;;;;5046745;28;47156;-80
2022/06/01 00:39:16;;;;;;;;;6.00;6.00;;;;;;;;5057571;28;47855;-80
2022/06/01 00:41:42;;;;;;;;;6.25;6.25;;;;;;;;5057681;28;46975;-80
2022/06/01 00:44:07;;;;;;;;;8.00;6.00;;;;;;;;5057202;28;46926;-80
2022/06/01 00:46:33;;;;;;;;;5.50;4.50;;;;;;;;5057977;28;47273;-81
2022/06/01 00:49:01;;;;;;;;;4.00;4.00;;;;;;;;5066061;28;48333;-80
2022/06/01 00:51:27;;;;;;;;;4.00;3.75;;;;;;;;5071517;28;46724;-81
2022/06/01 00:53:53;;;;;;;;;6.25;5.75;;;;;;;;5061058;28;46946;-81
2022/06/01 00:56:31;;;;;;;;;5.00;3.00;;;;;;;;5074541;28;47212;-81
2022/06/01 00:58:58;;;;;;;;;5.25;4.50;;;;;;;;5074148;28;46969;-81
2022/06/01 01:01:23;;;;;;;;;5.00;4.00;;;;;;;;5061541;28;46692;-81
2022/06/01 01:03:50;;;;;;;;;4.00;4.00;;;;;;;;5055759;28;46879;-81
2022/06/01 01:06:21;;;;;;;;;6.75;4.75;;;;;;;;5058908;28;46829;-81
2022/06/01 01:08:47;;;;;;;;;8.00;6.00;;;;;;;;5048197;28;48458;-81
2022/06/01 01:11:13;;;;;;;;;5.00;5.00;;;;;;;;5062475;28;47199;-81
2022/06/01 01:13:42;;;;;;;;;6.00;6.00;;;;;;;;5080970;28;47193;-81
2022/06/01 01:16:07;;;;;;;;;4.75;4.75;;;;;;;;5062749;28;46890;-81
2022/06/01 01:18:35;;;;;;;;;3.75;3.75;;;;;;;;5062715;28;49498;-81
2022/06/01 01:21:01;;;;;;;;;5.00;4.25;;;;;;;;5057226;28;47345;-81
2022/06/01 01:23:32;;;;;;;;;4.75;4.75;;;;;;;;5080774;28;46951;-81
2022/06/01 01:25:58;;;;;;;;;3.25;3.00;;;;;;;;5062647;28;47376;-81
2022/06/01 01:28:24;;;;;;;;;5.00;4.25;;;;;;;;5062266;28;47218;-81
2022/06/01 01:30:49;;;;;;;;;4.50;3.50;;;;;;;;5080387;28;47010;-81
2022/06/01 01:33:19;;;;;;;;;4.00;4.00;;;;;;;;5050283;28;47264;-81
2022/06/01 01:35:46;;;;;;;;;6.75;5.75;;;;;;;;5080150;28;46894;-81
2022/06/01 01:38:18;;;;;;;;;4.00;4.00;;;;;;;;5062149;28;48524;-81
2022/06/01 01:40:44;;;;;;;;;5.75;5.75;;;;;;;;5079707;28;46807;-81
2022/06/01 01:43:10;;;;;;;;;5.00;5.00;;;;;;;;5062230;28;46935;-81
2022/06/01 01:45:36;;;;;;;;;4.00;4.00;;;;;;;;5062106;28;46873;-81
2022/06/01 01:48:02;;;;;;;;;4.00;4.00;;;;;;;;5061550;28;49233;-81
2022/06/01 01:50:27;;;;;;;;;5.00;5.00;;;;;;;;5080215;28;47011;-81
2022/06/01 01:52:53;;;;;;;;;7.00;5.00;;;;;;;;5079886;28;46976;-81
2022/06/01 01:55:28;;;;;;;;;4.50;4.50;;;;;;;;5062214;28;47020;-81
2022/06/01 01:58:09;;;;;;;;;6.25;6.00;;;;;;;;5061500;28;49289;-81
2022/06/01 02:00:36;;;;;;;;;6.50;5.75;;;;;;;;5070975;28;46983;-81
2022/06/01 02:03:11;;;;;;;;;5.75;4.50;;;;;;;;5080009;28;47113;-81
2022/06/01 02:06:07;;;;;;;;;5.00;5.00;;;;;;;;5075936;28;46821;-81
2022/06/01 02:08:39;;;;;;;;;4.75;4.00;;;;;;;;5075169;28;46993;-81
2022/06/01 02:13:56;;;;;;;;;4.25;4.00;;;;;;;;5079669;28;46998;-81
2022/06/01 02:16:24;;;;;;;;;2.00;1.50;;;;;;;;5061891;28;46751;-81
2022/06/01 02:18:52;;;;;;;;;6.50;4.25;;;;;;;;5079620;28;47559;-81
2022/06/01 02:21:24;;;;;;;;;5.00;4.50;;;;;;;;5061397;28;47424;-81
2022/06/01 02:23:49;;;;;;;;;4.50;4.50;;;;;;;;5061676;28;46904;-81
2022/06/01 02:26:15;;;;;;;;;5.00;5.00;;;;;;;;5060742;28;46945;-81
2022/06/01 02:28:42;;;;;;;;;5.75;5.25;;;;;;;;5079680;28;47725;-81
2022/06/01 02:31:07;;;;;;;;;4.25;4.25;;;;;;;;5061286;28;47086;-81
2022/06/01 02:33:34;;;;;;;;;4.50;4.50;;;;;;;;5079751;28;46970;-81
2022/06/01 02:36:01;;;;;;;;;5.00;5.00;;;;;;;;5079672;28;46973;-81
2022/06/01 02:38:32;;;;;;;;;5.00;5.00;;;;;;;;5061475;28;48412;-81
2022/06/01 02:40:59;;;;;;;;;6.75;6.00;;;;;;;;5079243;28;47022;-81
2022/06/01 02:43:26;;;;;;;;;6.00;5.75;;;;;;;;5079514;28;47019;-81
2022/06/01 02:45:51;;;;;;;;;9.00;6.50;;;;;;;;5061342;28;46899;-81
2022/06/01 02:48:17;;;;;;;;;8.00;7.00;;;;;;;;5079244;28;47166;-81
2022/06/01 02:50:42;;;;;;;;;5.75;5.75;;;;;;;;5060898;28;46955;-81
2022/06/01 02:53:07;;;;;;;;;7.00;7.00;;;;;;;;5079661;28;46912;-81
2022/06/01 02:55:33;;;;;;;;;7.75;5.50;;;;;;;;5060637;28;47231;-81
2022/06/01 02:57:59;;;;;;;;;10.25;7.00;;;;;;;;5079131;28;46968;-81
2022/06/01 03:00:26;;;;;;;;;7.00;6.00;;;;;;;;5078655;28;47096;-81
2022/06/01 03:02:53;;;;;;;;;12.50;7.00;;;;;;;;5056589;28;47120;-81
2022/06/01 03:05:21;;;;;;;;;6.50;6.25;;;;;;;;5079227;28;47037;-81
2022/06/01 03:07:46;;;;;;;;;6.00;5.25;;;;;;;;5060888;28;48513;-81
2022/06/01 03:10:11;;;;;;;;;6.00;6.00;;;;;;;;5077874;28;46977;-81
2022/06/01 03:12:38;;;;;;;;;7.00;6.00;;;;;;;;5078926;28;47170;-82
2022/06/01 03:15:04;;;;;;;;;7.00;7.00;;;;;;;;5060620;28;46857;-82
2022/06/01 03:17:30;;;;;;;;;6.25;5.25;;;;;;;;5060659;28;49735;-81
2022/06/01 03:19:55;;;;;;;;;4.50;4.25;;;;;;;;5078864;28;47020;-81
2022/06/01 03:22:21;;;;;;;;;4.25;4.25;;;;;;;;5078543;28;47151;-81
2022/06/01 03:24:46;;;;;;;;;8.25;5.75;;;;;;;;5079140;28;47018;-81
2022/06/01 03:27:11;;;;;;;;;7.25;7.00;;;;;;;;5078924;28;48114;-82
2022/06/01 03:29:37;;;;;;;;;9.25;8.75;;;;;;;;5078320;28;46988;-82
2022/06/01 03:32:02;;;;;;;;;10.00;8.25;;;;;;;;5057920;28;46857;-82
2022/06/01 03:34:30;;;;;;;;;8.75;7.25;;;;;;;;5075381;28;46973;-82
2022/06/01 03:36:55;;;;;;;;;6.25;6.00;;;;;;;;5078315;28;47749;-82
2022/06/01 03:39:21;;;;;;;;;7.25;6.50;;;;;;;;5055701;28;47785;-82
2022/06/01 03:41:46;;;;;;;;;5.75;5.75;;;;;;;;5073939;28;46870;-82
2022/06/01 03:47:09;;;;;;;;;9.00;6.75;;;;;;;;5023290;28;47021;-82
2022/06/01 03:49:35;;;;;;;;;8.75;8.25;;;;;;;;5060260;28;47151;-82
2022/06/01 03:52:00;;;;;;;;;12.25;8.50;;;;;;;;5077875;28;47285;-82
2022/06/01 03:54:25;;;;;;;;;9.50;8.00;;;;;;;;5060454;28;46972;-82
2022/06/01 03:56:51;;;;;;;;;7.50;7.00;;;;;;;;5078139;28;47134;-82
2022/06/01 03:59:16;;;;;;;;;8.75;6.75;;;;;;;;5059608;28;47069;-81
2022/06/01 04:01:42;;;;;;;;;10.50;10.50;;;;;;;;5059827;28;47478;-81
2022/06/01 04:04:07;;;;;;;;;9.25;9.00;;;;;;;;5078236;28;47107;-81
2022/06/01 04:06:33;;;;;;;;;12.50;11.75;;;;;;;;5077485;28;47055;-81
2022/06/01 04:08:58;;;;;;;;;13.25;11.75;;;;;;;;5078025;28;46932;-82
2022/06/01 04:11:23;;;;;;;;;10.00;9.50;;;;;;;;5078204;28;46934;-82
2022/06/01 04:13:49;;;;;;;;;8.50;8.50;;;;;;;;5077849;28;46817;-82
2022/06/01 04:16:18;;;;;;;;;11.00;11.00;;;;;;;;5059575;28;49566;-82
2022/06/01 04:18:44;;;;;;;;;13.25;12.00;;;;;;;;5059653;28;47297;-82
2022/06/01 04:21:09;;;;;;;;;11.00;8.00;;;;;;;;5077532;28;47038;-81
2022/06/01 04:23:34;;;;;;;;;12.25;10.00;;;;;;;;5059695;28;47048;-81
2022/06/01 04:26:00;;;;;;;;;11.50;9.25;;;;;;;;5059609;28;48611;-81
2022/06/01 04:28:25;;;;;;;;;13.25;9.75;;;;;;;;5059053;28;47006;-81
2022/06/01 04:30:50;;;;;;;;;9.25;7.00;;;;;;;;5077942;28;46915;-81
2022/06/01 04:33:16;;;;;;;;;8.75;6.00;;;;;;;;5047518;28;46795;-81
2022/06/01 04:35:41;;;;;;;;;9.75;9.50;;;;;;;;5058341;28;48441;-81
2022/06/01 04:38:12;;;;;;;;;12.00;11.00;;;;;;;;5077704;28;46992;-81
2022/06/01 04:40:45;;;;;;;;;12.00;10.75;;;;;;;;5077345;28;46760;-81
2022/06/01 04:43:11;;;;;;;;;12.25;11.25;;;;;;;;5078006;28;46933;-81
2022/06/01 04:45:36;;;;;;;;;9.75;9.00;;;;;;;;5059737;28;49590;-81
2022/06/01 04:48:02;;;;;;;;;11.00;8.50;;;;;;;;5077846;28;46731;-81
2022/06/01 04:50:27;;;;;;;;;8.00;7.00;;;;;;;;5077779;28;47252;-81
2022/06/01 04:52:52;;;;;;;;;14.50;11.75;;;;;;;;5059772;28;46944;-81
2022/06/01 04:55:18;;;;;;;;;12.00;11.25;;;;;;;;5077563;28;48060;-81
2022/06/01 04:57:43;;;;;;;;;10.75;9.50;;;;;;;;5059403;28;46863;-81
2022/06/01 05:00:10;;;;;;;;;10.50;10.50;;;;;;;;5058999;28;47027;-81
2022/06/01 05:02:35;;;;;;;;;13.00;11.00;;;;;;;;5058925;28;47052;-81
2022/06/01 05:05:01;;;;;;;;;15.25;12.50;;;;;;;;5077301;28;48035;-81
2022/06/01 05:07:26;;;;;;;;;12.25;10.25;;;;;;;;5077515;28;46873;-81
2022/06/01 05:09:51;;;;;;;;;13.50;11.00;;;;;;;;5077408;28;46994;-81
2022/06/01 05:12:17;;;;;;;;;10.50;9.25;;;;;;;;5077527;28;47015;-81
2022/06/01 05:14:42;;;;;;;;;11.25;10.25;;;;;;;;5059051;28;49241;-81
2022/06/01 05:17:07;;;;;;;;;16.50;11.25;;;;;;;;5058942;28;47010;-82
2022/06/01 05:19:34;;;;;;;;;10.75;10.00;;;;;;;;5059263;28;47089;-81
2022/06/01 05:21:59;;;;;;;;;16.25;12.75;;;;;;;;5059110;28;47406;-81
2022/06/01 05:24:24;;;;;;;;;10.50;8.50;;;;;;;;5059135;28;47097;-81
2022/06/01 05:26:50;;;;;;;;;9.25;8.25;;;;;;;;5077030;28;46960;-81
2022/06/01 05:29:15;;;;;;;;;9.00;8.50;;;;;;;;5077455;28;46990;-81
2022/06/01 05:31:40;;;;;;;;;11.00;9.75;;;;;;;;5077331;28;47047;-81
2022/06/01 05:34:06;;;;;;;;;12.25;11.75;;;;;;;;5064769;28;48265;-81
2022/06/01 05:36:31;;;;;;;;;15.50;13.75;;;;;;;;5080343;28;47058;-81
2022/06/01 05:38:56;;;;;;;;;14.00;13.25;;;;;;;;5062326;28;46965;-81
2022/06/01 05:41:22;;;;;;;;;12.50;12.00;;;;;;;;5074683;28;47090;-81
2022/06/01 05:43:47;;;;;;;;;13.50;11.00;;;;;;;;5061658;28;49223;-81
2022/06/01 05:46:12;;;;;;;;;14.00;10.50;;;;;;;;5079921;28;46936;-81
2022/06/01 05:48:38;;;;;;;;;16.25;12.50;;;;;;;;5080533;28;47237;-81
2022/06/01 05:51:03;;;;;;;;;16.75;14.00;;;;;;;;5080241;28;47043;-82
2022/06/01 05:53:29;;;;;;;;;11.50;10.75;;;;;;;;5061780;28;49355;-80
2022/06/01 05:55:54;;;;;;;;;12.50;12.50;;;;;;;;5086685;28;47007;-80
2022/06/01 05:58:27;;;;;;;;;14.75;13.50;;;;;;;;5073415;28;46171;-79
2022/06/01 06:00:53;;;;;;;;;14.00;14.00;;;;;;;;5089171;28;46274;-81
2022/06/01 06:03:19;;;;;;;;;14.50;13.00;;;;;;;;5078336;28;46888;-80
2022/06/01 06:08:29;;;;;;;;;13.00;11.75;;;;;;;;5069203;28;47064;-79
2022/06/01 06:10:54;;;;;;;;;12.75;10.75;;;;;;;;5079885;28;47277;-80
2022/06/01 06:13:20;;;;;;;;;13.75;12.50;;;;;;;;5078131;28;47299;-80
2022/06/01 06:15:45;;;;;;;;;13.50;10.25;;;;;;;;5079878;28;46813;-80
2022/06/01 06:18:11;;;;;;;;;14.25;11.75;;;;;;;;5074363;28;46932;-79
2022/06/01 06:20:37;;;;;;;;;12.50;10.50;;;;;;;;5053842;28;47166;-80
2022/06/01 06:23:02;;;;;;;;;11.00;9.75;;;;;;;;5079440;28;47710;-80
2022/06/01 06:25:28;;;;;;;;;10.75;8.00;;;;;;;;5079680;28;46923;-79
2022/06/01 06:27:53;;;;;;;;;7.00;7.00;;;;;;;;5079796;28;47155;-79
2022/06/01 06:30:19;;;;;;;;;7.25;6.00;;;;;;;;5081110;28;47071;-79
2022/06/01 06:32:45;;;;;;;;;6.75;5.25;;;;;;;;5059468;28;48572;-79
2022/06/01 06:35:11;;;;;;;;;7.50;6.50;;;;;;;;5079281;28;47406;-79
2022/06/01 06:37:36;;;;;;;;;4.75;4.75;;;;;;;;5078382;28;47110;-79
2022/06/01 06:40:02;;;;;;;;;4.75;4.75;;;;;;;;5079789;28;47012;-79
2022/06/01 06:42:27;;;;;;;;;6.00;5.25;;;;;;;;5059756;28;48052;-79
2022/06/01 06:44:53;;;;;;;;;8.25;7.00;;;;;;;;5079141;28;46816;-79
2022/06/01 06:47:18;;;;;;;;;4.00;4.00;;;;;;;;5078761;28;46814;-79
2022/06/01 06:49:43;;;;;;;;;6.50;5.00;;;;;;;;5059667;28;47355;-79
2022/06/01 06:52:08;;;;;;;;;4.75;4.75;;;;;;;;5079153;28;46742;-82
2022/06/01 06:54:34;;;;;;;;;7.00;5.50;;;;;;;;5077238;28;46933;-83
2022/06/01 06:57:00;;;;;;;;;4.00;4.00;;;;;;;;5079017;28;47059;-85
2022/06/01 06:59:26;;;;;;;;;6.00;6.00;;;;;;;;5060954;28;47253;-82
2022/06/01 07:01:51;;;;;;;;;6.00;5.50;;;;;;;;5077018;28;47697;-83
2022/06/01 07:04:18;;;;;;;;;7.50;6.00;;;;;;;;5056627;28;47160;-86
2022/06/01 07:06:43;;;;;;;;;4.75;4.75;;;;;;;;5076885;28;47143;-86
2022/06/01 07:09:09;;;;;;;;;4.00;4.00;;;;;;;;5079334;28;47293;-85
2022/06/01 07:11:35;;;;;;;;;7.00;5.75;;;;;;;;5060894;28;48463;-85
2022/06/01 07:14:00;;;;;;;;;7.00;4.50;;;;;;;;5059880;28;46991;-86
2022/06/01 07:16:30;;;;;;;;;5.00;4.00;;;;;;;;5061133;28;47457;-84
2022/06/01 07:18:58;;;;;;;;;5.25;5.25;;;;;;;;5076188;28;47110;-86
2022/06/01 07:21:26;;;;;;;;;4.75;4.50;;;;;;;;5060701;28;49307;-84
2022/06/01 07:24:15;;;;;;;;;7.00;6.25;;;;;;;;5060155;28;47356;-85
2022/06/01 07:26:46;;;;;;;;;5.00;5.00;;;;;;;;5077604;27;46881;-84
2022/06/01 07:29:13;;;;;;;;;9.00;6.75;;;;;;;;5060466;28;47005;-83
2022/06/01 07:31:39;;;;;;;;;7.00;5.50;;;;;;;;5060168;28;47229;-83
2022/06/01 07:34:05;;;;;;;;;5.25;4.75;;;;;;;;5060514;28;47502;-83
2022/06/01 07:36:30;;;;;;;;;4.00;4.00;;;;;;;;5079092;28;46951;-83
2022/06/01 07:44:31;;;;;;;;;6.50;6.50;;;;;;;;5078889;28;47437;-84
2022/06/01 07:46:57;;;;;;;;;6.00;5.25;;;;;;;;5079014;28;46856;-84
2022/06/01 07:49:42;;;;;;;;;4.25;4.25;;;;;;;;5079208;28;47015;-84
2022/06/01 07:52:29;;;;;;;;;4.00;4.00;;;;;;;;5048973;28;48383;-83
2022/06/01 07:54:54;;;;;;;;;7.75;4.50;;;;;;;;5078203;27;47141;-83
2022/06/01 07:57:19;;;;;;;;;7.00;5.00;;;;;;;;5078440;28;46900;-84
2022/06/01 07:59:52;;;;;;;;;7.00;5.50;;;;;;;;5060315;28;47374;-84
2022/06/01 08:02:20;;;;;;;;;6.25;5.50;;;;;;;;5060518;28;49437;-84
2022/06/01 08:04:46;;;;;;;;;3.75;3.75;;;;;;;;5077998;28;47210;-84
2022/06/01 08:07:24;;;;;;;;;6.50;4.75;;;;;;;;5060475;28;47120;-84
2022/06/01 08:09:49;;;;;;;;;9.25;5.00;;;;;;;;5082057;27;47069;-84
2022/06/01 08:15:15;;;;;;;;;6.75;6.00;;;;;;;;5078470;28;47001;-84
2022/06/01 08:17:46;;;;;;;;;3.00;3.00;;;;;;;;5060304;28;46774;-84
2022/06/01 08:20:14;;;;;;;;;5.00;5.00;;;;;;;;5078504;28;47091;-83
2022/06/01 08:22:42;;;;;;;;;6.00;6.00;;;;;;;;5059973;28;47416;-83
2022/06/01 08:25:09;;;;;;;;;8.25;5.50;;;;;;;;5078356;28;47180;-83
2022/06/01 08:27:35;;;;;;;;;5.00;5.00;;;;;;;;5048194;28;47075;-83
2022/06/01 08:30:05;;;;;;;;;6.25;5.25;;;;;;;;5058750;28;47249;-84
2022/06/01 08:32:58;;;;;;;;;5.50;5.50;;;;;;;;5053553;28;49112;-83
2022/06/01 08:35:33;;;;;;;;;5.00;4.75;;;;;;;;5059125;28;47365;-84
2022/06/01 08:38:19;;;;;;;;;3.00;3.00;;;;;;;;5082975;28;46872;-84
2022/06/01 08:40:48;;;;;;;;;3.00;3.00;;;;;;;;5078468;28;46935;-84
2022/06/01 08:43:15;;;;;;;;;6.00;5.00;;;;;;;;5078019;28;47145;-84
2022/06/01 08:45:43;;;;;;;;;4.25;4.00;;;;;;;;5078208;28;47030;-84
2022/06/01 08:48:17;;;;;;;;;5.50;4.00;;;;;;;;5059997;28;46837;-84
2022/06/01 08:50:42;;;;;;;;;3.00;3.00;;;;;;;;5059816;28;46999;-85
2022/06/01 08:53:15;;;;;;;;;3.50;3.50;;;;;;;;5078217;28;47000;-84
2022/06/01 08:55:41;;;;;;;;;3.25;3.00;;;;;;;;5078106;28;47012;-83
2022/06/01 08:58:10;;;;;;;;;5.00;5.00;;;;;;;;5077912;28;47137;-83
2022/06/01 09:00:38;;;;;;;;;4.00;2.00;;;;;;;;5078112;28;46846;-84
2022/06/01 09:03:29;;;;;;;;;3.50;3.50;;;;;;;;5077748;28;48228;-84
2022/06/01 09:06:00;;;;;;;;;5.00;5.00;;;;;;;;5047960;28;46942;-83
2022/06/01 09:08:40;;;;;;;;;;;;;;;;;;;;;
2022/06/01 09:11:34;;;;;;;;;8.50;5.75;;;;;;;;5080415;28;68654;-84
2022/06/01 09:14:12;;;;;;;;;6.00;5.00;;;;;;;;5058887;28;47904;-83
2022/06/01 09:16:47;;;;;;;;;5.00;5.00;;;;;;;;5096386;28;47115;-84
2022/06/01 09:19:19;;;;;;;;;5.50;5.00;;;;;;;;5088946;28;46274;-85
2022/06/01 09:24:36;;;;;;;;;4.00;3.25;;;;;;;;5083369;28;47115;-84
2022/06/01 09:27:04;;;;;;;;;4.75;4.75;;;;;;;;5074742;28;47119;-84
2022/06/01 09:29:32;;;;;;;;;5.00;5.00;;;;;;;;5056938;28;46896;-84
2022/06/01 09:32:03;;;;;;;;;3.00;3.00;;;;;;;;5061069;28;47324;-83
2022/06/01 09:34:44;;;;;;;;;4.00;4.00;;;;;;;;5076234;28;47727;-84
2022/06/01 09:37:21;;;;;;;;;6.50;4.50;;;;;;;;5062596;28;46975;-84
2022/06/01 09:39:59;;;;;;;;;3.50;3.00;;;;;;;;5081076;28;46879;-83
2022/06/01 09:42:28;;;;;;;;;4.00;3.00;;;;;;;;5063713;28;46754;-84
2022/06/01 09:44:57;;;;;;;;;6.75;6.00;;;;;;;;5080794;28;46985;-84
2022/06/01 09:47:40;;;;;;;;;4.75;4.75;;;;;;;;5063548;28;47145;-83
2022/06/01 09:50:25;;;;;;;;;4.00;4.00;;;;;;;;5054174;28;46874;-83
2022/06/01 09:52:55;;;;;;;;;5.00;3.25;;;;;;;;5079570;28;46490;-84
2022/06/01 09:55:25;;;;;;;;;4.50;4.50;;;;;;;;5078889;28;31055;-84
2022/06/01 09:57:59;;;;;;;;;5.50;5.50;;;;;;;;5097255;28;29700;-84
2022/06/01 10:06:07;;;;;;;;;5.25;3.75;;;;;;;;5045359;28;47259;-83
2022/06/01 10:08:35;;;;;;;;;4.00;3.50;;;;;;;;5080405;28;46840;-84
2022/06/01 10:13:54;;;;;;;;;4.25;3.75;;;;;;;;5043578;28;46997;-83
2022/06/01 10:16:54;;;;;;;;;4.00;4.00;;;;;;;;5060518;28;48866;-84
2022/06/01 10:19:25;;;;;;;;;5.00;3.75;;;;;;;;5071435;28;44737;-84
2022/06/01 10:22:10;;;;;;;;;;;;;;;;;;;;;
2022/06/01 10:27:44;;;;;;;;;;;;;;;;;;;;;
2022/06/01 10:30:18;;;;;;;;;3.00;3.00;;;;;;;;5058539;28;75393;-84
2022/06/01 10:33:29;;;;;;;;;;;;;;;;;;;;;
2022/06/01 10:36:03;;;;;;;;;3.00;2.50;;;;;;;;5036395;28;67812;-86
2022/06/01 10:38:53;;;;;;;;;;;;;;;;;;;;;
2022/06/01 10:47:46;;;;;;;;;4.00;3.75;;;;;;;;5075448;28;30223;-84
2022/06/01 10:56:18;;;;;;;;;4.50;2.75;;;;;;;;5065088;28;29579;-83
2022/06/01 10:58:47;;;;;;;;;3.50;3.00;;;;;;;;5073859;28;46242;-84
2022/06/01 11:01:34;;;;;;;;;4.00;4.00;;;;;;;;5060844;28;47015;-84
2022/06/01 11:04:18;;;;;;;;;5.00;5.00;;;;;;;;5063053;28;47115;-82
2022/06/01 11:06:45;;;;;;;;;4.00;4.00;;;;;;;;5057537;28;47147;-84
2022/06/01 11:09:13;;;;;;;;;5.50;3.75;;;;;;;;5060666;28;46896;-83
2022/06/01 11:11:44;;;;;;;;;3.75;2.50;;;;;;;;5079209;28;47851;-84
2022/06/01 11:14:13;;;;;;;;;4.75;3.50;;;;;;;;5079240;28;47192;-84
2022/06/01 11:16:49;;;;;;;;;3.50;2.50;;;;;;;;5060811;28;46936;-85
2022/06/01 11:19:33;;;;;;;;;3.00;3.00;;;;;;;;5061226;28;46859;-84
2022/06/01 11:22:25;;;;;;;;;3.25;3.00;;;;;;;;5079064;28;47214;-83
2022/06/01 11:25:11;;;;;;;;;3.50;3.50;;;;;;;;5078971;28;47375;-84
2022/06/01 11:27:44;;;;;;;;;4.00;4.00;;;;;;;;5066328;28;46937;-83
2022/06/01 11:30:30;;;;;;;;;3.50;3.50;;;;;;;;5065873;28;47002;-84
2022/06/01 11:32:58;;;;;;;;;3.75;3.00;;;;;;;;5077214;27;48012;-85
2022/06/01 11:35:49;;;;;;;;;;;;;;;;;;;;;
2022/06/01 11:38:14;;;;;;;;;4.75;4.00;;;;;;;;5064454;28;72997;-84
2022/06/01 11:40:50;;;;;;;;;4.50;3.25;;;;;;;;5079222;28;46998;-84
2022/06/01 11:43:28;;;;;;;;;3.00;3.00;;;;;;;;5066850;28;47145;-85
2022/06/01 11:45:56;;;;;;;;;3.75;3.00;;;;;;;;5060580;28;47202;-83
2022/06/01 11:48:28;;;;;;;;;3.00;3.00;;;;;;;;5079067;28;46854;-84
2022/06/01 11:50:57;;;;;;;;;4.50;3.50;;;;;;;;5078602;28;47148;-85
2022/06/01 11:53:37;;;;;;;;;4.75;4.00;;;;;;;;5060450;28;48582;-84
2022/06/01 11:56:13;;;;;;;;;4.25;3.25;;;;;;;;5060565;28;47130;-85
2022/06/01 11:58:40;;;;;;;;;2.25;2.25;;;;;;;;5078327;28;46920;-84
2022/06/01 12:01:16;;;;;;;;;3.50;3.00;;;;;;;;5060718;28;47123;-84
2022/06/01 12:04:10;;;;;;;;;3.25;3.25;;;;;;;;5078466;28;47011;-84
2022/06/01 12:06:43;;;;;;;;;3.00;3.00;;;;;;;;5078505;28;46791;-83
2022/06/01 12:09:14;;;;;;;;;3.25;3.25;;;;;;;;5060394;28;46806;-83
2022/06/01 12:11:41;;;;;;;;;3.00;1.50;;;;;;;;5060201;28;47089;-84
2022/06/01 12:14:34;;;;;;;;;3.25;3.25;;;;;;;;5078288;28;47066;-84
2022/06/01 12:17:18;;;;;;;;;4.25;4.25;;;;;;;;5059964;28;47690;-84
2022/06/01 12:19:51;;;;;;;;;2.50;2.50;;;;;;;;5060183;28;47060;-85
2022/06/01 12:31:19;;;;;;;;;6.50;1.00;;;;;;;;5078287;27;46856;-83
2022/06/01 12:34:05;;;;;;;;;8.50;2.00;;;;;;;;5071392;28;46921;-83
2022/06/01 12:39:34;;;;;;;;;2.25;2.25;;;;;;;;5075004;27;47001;-84
2022/06/01 12:42:05;;;;;;;;;3.50;3.50;;;;;;;;5060065;28;46879;-84
2022/06/01 12:44:42;;;;;;;;;2.50;2.50;;;;;;;;5063263;28;47022;-84
2022/06/01 12:47:20;;;;;;;;;1.50;1.50;;;;;;;;5081620;28;47986;-84
2022/06/01 12:49:47;;;;;;;;;4.25;2.75;;;;;;;;5063129;28;47709;-84
2022/06/01 12:52:16;;;;;;;;;5.75;4.50;;;;;;;;5081414;28;46982;-84
2022/06/01 12:54:45;;;;;;;;;3.75;2.75;;;;;;;;5081803;28;46914;-83
2022/06/01 12:57:22;;;;;;;;;3.75;2.50;;;;;;;;5063119;28;49763;-83
2022/06/01 12:59:55;;;;;;;;;3.25;3.25;;;;;;;;5081438;28;46820;-84
2022/06/01 13:02:32;;;;;;;;;8.25;2.25;;;;;;;;5081446;28;46856;-84
2022/06/01 13:04:57;;;;;;;;;2.75;1.75;;;;;;;;5075565;28;47061;-83
2022/06/01 13:07:26;;;;;;;;;2.75;2.75;;;;;;;;5063053;28;48447;-83
2022/06/01 13:10:02;;;;;;;;;3.50;3.50;;;;;;;;5081069;28;47196;-83
2022/06/01 13:12:30;;;;;;;;;2.00;2.00;;;;;;;;5081254;28;46791;-82
2022/06/01 13:15:08;;;;;;;;;2.50;2.50;;;;;;;;5062808;28;46830;-84
2022/06/01 13:17:33;;;;;;;;;7.25;1.00;;;;;;;;5062844;28;48355;-84
2022/06/01 13:20:02;;;;;;;;;2.75;2.00;;;;;;;;5080982;28;47151;-84
2022/06/01 13:22:34;;;;;;;;;3.25;3.25;;;;;;;;5062772;28;47051;-83
2022/06/01 13:25:03;;;;;;;;;4.50;4.00;;;;;;;;5063110;28;47309;-83
2022/06/01 13:27:29;;;;;;;;;4.00;2.00;;;;;;;;5069790;28;47239;-83
2022/06/01 13:29:59;;;;;;;;;3.50;3.50;;;;;;;;5060312;28;47214;-83
2022/06/01 13:32:33;;;;;;;;;3.00;3.00;;;;;;;;5080941;28;46943;-83
2022/06/01 13:35:04;;;;;;;;;2.50;2.25;;;;;;;;5062529;28;47113;-83
2022/06/01 13:37:30;;;;;;;;;7.75;2.75;;;;;;;;5062579;28;48642;-83
2022/06/01 13:39:55;;;;;;;;;9.50;1.25;;;;;;;;5062676;28;47080;-83
2022/06/01 13:42:29;;;;;;;;;3.00;1.75;;;;;;;;5062599;28;46995;-83
2022/06/01 13:44:56;;;;;;;;;2.00;2.00;;;;;;;;5062653;28;46739;-83
2022/06/01 13:47:32;;;;;;;;;1.75;1.75;;;;;;;;5062217;28;47289;-82
2022/06/01 13:50:10;;;;;;;;;3.75;2.00;;;;;;;;5080510;28;46961;-82
2022/06/01 13:52:37;;;;;;;;;2.50;1.75;;;;;;;;5080370;28;47051;-82
2022/06/01 13:55:09;;;;;;;;;6.75;3.00;;;;;;;;5080280;28;46900;-83
2022/06/01 13:57:44;;;;;;;;;2.50;2.00;;;;;;;;5062056;28;49607;-83
2022/06/01 14:00:17;;;;;;;;;2.50;2.50;;;;;;;;5080343;28;46936;-84
2022/06/01 14:02:54;;;;;;;;;4.25;1.75;;;;;;;;5080592;28;46992;-83
2022/06/01 14:05:23;;;;;;;;;5.00;4.00;;;;;;;;5062204;28;47158;-83
2022/06/01 14:07:54;;;;;;;;;7.00;2.50;;;;;;;;5080580;28;48119;-83
2022/06/01 14:10:29;;;;;;;;;5.50;2.00;;;;;;;;5058523;28;47877;-83
2022/06/01 14:12:55;;;;;;;;;8.25;2.25;;;;;;;;5059793;28;46933;-84
2022/06/01 14:15:26;;;;;;;;;2.75;2.00;;;;;;;;5060232;28;47277;-84
2022/06/01 14:17:57;;;;;;;;;6.50;1.50;;;;;;;;5058473;28;49295;-83
2022/06/01 14:20:27;;;;;;;;;7.00;1.50;;;;;;;;5059919;28;46802;-83
2022/06/01 14:22:53;;;;;;;;;7.50;1.00;;;;;;;;5058425;28;46979;-83
2022/06/01 14:30:46;;;;;;;;;9.00;2.00;;;;;;;;5059623;28;46825;-82
2022/06/01 14:33:12;;;;;;;;;9.25;2.00;;;;;;;;5051029;28;47114;-83
2022/06/01 14:35:38;;;;;;;;;3.50;2.75;;;;;;;;5060054;28;47087;-83
2022/06/01 14:38:03;;;;;;;;;4.00;2.25;;;;;;;;5059538;28;47840;-83
2022/06/01 14:40:28;;;;;;;;;3.25;2.75;;;;;;;;5058323;28;47043;-83
2022/06/01 14:42:56;;;;;;;;;8.00;1.00;;;;;;;;5059326;28;46980;-82
2022/06/01 14:45:21;;;;;;;;;3.75;3.00;;;;;;;;5058429;28;47057;-83
2022/06/01 14:47:46;;;;;;;;;8.00;1.00;;;;;;;;5059235;28;47100;-83
2022/06/01 14:50:12;;;;;;;;;8.75;2.00;;;;;;;;5058033;28;46970;-82
2022/06/01 14:52:37;;;;;;;;;5.75;2.75;;;;;;;;5057906;28;47093;-82
2022/06/01 14:55:04;;;;;;;;;9.00;2.00;;;;;;;;5059542;28;46965;-82
2022/06/01 14:57:29;;;;;;;;;3.25;3.00;;;;;;;;5057877;28;47988;-83
2022/06/01 14:59:55;;;;;;;;;8.50;2.00;;;;;;;;5058861;28;46815;-82
2022/06/01 15:02:20;;;;;;;;;2.00;2.00;;;;;;;;5059277;28;46833;-82
2022/06/01 15:04:56;;;;;;;;;9.25;2.00;;;;;;;;5057997;28;47316;-82
2022/06/01 15:07:21;;;;;;;;;8.00;1.50;;;;;;;;5044607;28;49306;-83
2022/06/01 15:09:47;;;;;;;;;10.00;2.00;;;;;;;;5062986;28;46899;-83
2022/06/01 15:12:12;;;;;;;;;9.00;2.00;;;;;;;;5061078;28;46928;-82
2022/06/01 15:14:37;;;;;;;;;8.00;1.00;;;;;;;;5061142;28;47056;-82
2022/06/01 15:17:05;;;;;;;;;8.50;2.00;;;;;;;;5079242;28;47056;-82
2022/06/01 15:19:39;;;;;;;;;8.75;2.00;;;;;;;;5079254;28;47019;-82
2022/06/01 15:22:05;;;;;;;;;7.75;2.00;;;;;;;;5079165;28;46922;-81
2022/06/01 15:24:30;;;;;;;;;9.00;2.00;;;;;;;;5079347;28;46913;-81
2022/06/01 15:26:55;;;;;;;;;1.50;1.50;;;;;;;;5072408;28;47081;-82
2022/06/01 15:40:39;;;;;;;;;4.00;4.00;;;;;;;;5079080;28;46877;-83
2022/06/01 15:43:05;;;;;;;;;1.00;1.00;;;;;;;;5065846;28;46943;-82
2022/06/01 15:45:33;;;;;;;;;4.75;3.00;;;;;;;;5079055;28;46944;-82
2022/06/01 15:47:59;;;;;;;;;1.75;1.75;;;;;;;;5078875;28;46793;-82
2022/06/01 15:50:25;;;;;;;;;2.00;2.00;;;;;;;;5078525;28;46926;-82
2022/06/01 15:52:50;;;;;;;;;1.75;1.50;;;;;;;;5060355;28;46951;-82
2022/06/01 15:55:16;;;;;;;;;4.00;4.00;;;;;;;;5078774;28;46801;-82
2022/06/01 15:57:42;;;;;;;;;2.00;2.00;;;;;;;;5078446;28;46999;-82
2022/06/01 16:00:37;;;;;;;;;2.00;2.00;;;;;;;;5060027;28;47919;-83
2022/06/01 16:03:02;;;;;;;;;3.00;3.00;;;;;;;;5038879;28;46877;-81
2022/06/01 16:05:28;;;;;;;;;2.00;2.00;;;;;;;;5078463;28;48244;-82
2022/06/01 16:07:53;;;;;;;;;3.25;3.25;;;;;;;;5060255;28;47022;-81
2022/06/01 16:10:19;;;;;;;;;2.75;2.75;;;;;;;;5056348;28;47425;-83